createdAt,value
2022-08-28T00:02:09.356Z,4.90
2022-08-28T00:04:37.817Z,4.20
2022-08-28T00:07:07.577Z,4.20
2022-08-28T00:09:36.073Z,4.43
2022-08-28T00:12:05.417Z,4.23
2022-08-28T00:14:33.751Z,4.20
2022-08-28T00:17:01.850Z,4.40
2022-08-28T00:19:30.006Z,3.40
2022-08-28T00:21:58.422Z,4.23
2022-08-28T00:24:27.831Z,4.40
2022-08-28T00:27:13.182Z,3.70
2022-08-28T00:29:41.924Z,4.10
2022-08-28T00:32:10.003Z,3.70
2022-08-28T00:34:38.781Z,4.17
2022-08-28T00:37:07.089Z,4.27
2022-08-28T00:39:36.568Z,4.33
2022-08-28T00:42:06.453Z,3.87
2022-08-28T00:44:34.768Z,4.33
2022-08-28T00:47:02.840Z,4.00
2022-08-28T00:49:46.770Z,3.43
2022-08-28T00:52:16.022Z,4.60
2022-08-28T00:54:58.547Z,3.90
2022-08-28T00:57:35.453Z,3.63
2022-08-28T01:00:05.468Z,4.70
2022-08-28T01:02:33.608Z,4.03
2022-08-28T01:05:01.781Z,4.77
2022-08-28T01:07:30.400Z,4.47
2022-08-28T01:10:01.015Z,4.27
2022-08-28T01:12:32.194Z,4.47
2022-08-28T01:15:09.278Z,3.80
2022-08-28T01:17:40.107Z,4.43
2022-08-28T01:20:14.977Z,3.53
2022-08-28T01:22:52.118Z,3.97
2022-08-28T01:25:24.187Z,4.00
2022-08-28T01:27:52.351Z,5.00
2022-08-28T01:30:23.298Z,4.27
2022-08-28T01:32:53.769Z,3.83
2022-08-28T01:35:24.526Z,4.47
2022-08-28T01:37:53.122Z,3.80
2022-08-28T01:40:27.913Z,4.53
2022-08-28T01:42:56.547Z,5.03
2022-08-28T01:45:26.261Z,4.40
2022-08-28T01:47:57.099Z,4.83
2022-08-28T01:50:25.290Z,4.30
2022-08-28T01:52:53.390Z,5.70
2022-08-28T01:55:23.009Z,4.70
2022-08-28T01:57:53.997Z,5.13
2022-08-28T02:00:26.898Z,5.30
2022-08-28T02:02:56.694Z,5.00
2022-08-28T02:05:27.365Z,4.83
2022-08-28T02:07:57.290Z,4.37
2022-08-28T02:10:29.015Z,4.70
2022-08-28T02:12:59.071Z,4.70
2022-08-28T02:15:29.109Z,4.70
2022-08-28T02:17:57.518Z,4.27
2022-08-28T02:20:26.640Z,4.53
2022-08-28T02:22:55.308Z,5.33
2022-08-28T02:25:23.693Z,4.83
2022-08-28T02:27:53.130Z,4.43
2022-08-28T02:30:22.050Z,4.77
2022-08-28T02:32:51.737Z,4.40
2022-08-28T02:35:21.715Z,4.87
2022-08-28T02:37:50.189Z,5.53
2022-08-28T02:40:20.953Z,4.90
2022-08-28T02:42:49.741Z,3.83
2022-08-28T02:45:20.923Z,5.73
2022-08-28T02:47:49.159Z,5.03
2022-08-28T02:50:19.463Z,4.73
2022-08-28T02:52:48.246Z,4.70
2022-08-28T02:55:19.559Z,4.73
2022-08-28T02:57:48.466Z,4.60
2022-08-28T03:00:22.451Z,4.67
2022-08-28T03:02:52.074Z,4.07
2022-08-28T03:05:23.720Z,4.87
2022-08-28T03:07:53.334Z,5.37
2022-08-28T03:10:22.795Z,4.83
2022-08-28T03:12:51.751Z,4.60
2022-08-28T03:15:21.427Z,4.90
2022-08-28T03:17:49.653Z,4.30
2022-08-28T03:20:19.031Z,5.33
2022-08-28T03:23:04.729Z,4.87
2022-08-28T03:25:33.064Z,4.53
2022-08-28T03:28:01.153Z,4.63
2022-08-28T03:30:30.871Z,5.10
2022-08-28T03:33:01.131Z,4.47
2022-08-28T03:35:29.260Z,5.83
2022-08-28T03:37:57.585Z,4.60
2022-08-28T03:40:25.811Z,4.63
2022-08-28T03:42:53.913Z,4.50
2022-08-28T03:45:22.686Z,4.90
2022-08-28T03:47:52.213Z,5.10
2022-08-28T03:50:21.338Z,4.47
2022-08-28T03:52:49.529Z,3.77
2022-08-28T03:55:19.648Z,4.50
2022-08-28T03:57:47.949Z,4.30
2022-08-28T04:00:17.029Z,4.33
2022-08-28T04:02:46.176Z,4.40
2022-08-28T04:05:17.806Z,4.73
2022-08-28T04:07:46.185Z,4.60
2022-08-28T04:10:14.535Z,4.00
2022-08-28T04:12:44.433Z,3.90
2022-08-28T04:15:13.551Z,4.30
2022-08-28T04:17:42.299Z,3.73
2022-08-28T04:20:12.003Z,4.43
2022-08-28T04:22:41.828Z,3.87
2022-08-28T04:25:10.412Z,4.43
2022-08-28T04:27:38.503Z,4.50
2022-08-28T04:30:10.024Z,4.40
2022-08-28T04:32:39.572Z,4.47
2022-08-28T04:35:12.014Z,4.17
2022-08-28T04:37:43.665Z,3.90
2022-08-28T04:40:14.519Z,3.83
2022-08-28T04:42:44.961Z,5.00
2022-08-28T04:45:13.611Z,4.60
2022-08-28T04:47:41.912Z,3.73
2022-08-28T04:50:12.440Z,4.40
2022-08-28T04:52:43.184Z,4.13
2022-08-28T04:55:11.719Z,4.17
2022-08-28T04:57:39.963Z,3.50
2022-08-28T05:00:11.540Z,3.53
2022-08-28T05:02:39.706Z,4.50
2022-08-28T05:05:08.521Z,4.30
2022-08-28T05:07:36.727Z,3.97
2022-08-28T05:10:08.470Z,3.90
2022-08-28T05:12:37.103Z,4.30
2022-08-28T05:15:06.203Z,4.00
2022-08-28T05:17:34.817Z,3.93
2022-08-28T05:20:03.864Z,3.90
2022-08-28T05:22:33.831Z,3.87
2022-08-28T05:25:02.076Z,3.53
2022-08-28T05:27:31.567Z,3.80
2022-08-28T05:30:01.902Z,3.60
2022-08-28T05:32:30.465Z,3.10
2022-08-28T05:34:58.589Z,3.80
2022-08-28T05:37:27.693Z,3.77
2022-08-28T05:39:57.635Z,3.53
2022-08-28T05:42:30.657Z,3.30
2022-08-28T05:45:01.336Z,4.37
2022-08-28T05:47:32.657Z,4.20
2022-08-28T05:50:00.980Z,3.37
2022-08-28T05:52:29.923Z,3.07
2022-08-28T05:54:58.521Z,4.53
2022-08-28T05:57:26.704Z,3.53
2022-08-28T05:59:54.798Z,3.03
2022-08-28T06:02:24.258Z,3.70
2022-08-28T06:04:53.653Z,4.23
2022-08-28T06:07:21.897Z,3.30
2022-08-28T06:09:50.078Z,3.40
2022-08-28T06:12:18.165Z,4.23
2022-08-28T06:14:46.280Z,3.67
2022-08-28T06:17:14.553Z,3.43
2022-08-28T06:19:44.109Z,2.90
2022-08-28T06:22:14.760Z,3.40
2022-08-28T06:24:42.963Z,3.50
2022-08-28T06:27:11.073Z,3.33
2022-08-28T06:29:39.837Z,3.10
2022-08-28T06:32:09.298Z,3.00
2022-08-28T06:34:37.581Z,2.97
2022-08-28T06:37:07.947Z,3.40
2022-08-28T06:39:36.053Z,3.67
2022-08-28T06:42:05.439Z,4.00
2022-08-28T06:44:33.844Z,2.83
2022-08-28T06:47:02.049Z,3.40
2022-08-28T06:49:30.190Z,2.77
2022-08-28T06:51:58.272Z,2.90
2022-08-28T06:54:30.917Z,3.57
2022-08-28T06:56:59.033Z,3.67
2022-08-28T06:59:27.106Z,2.70
2022-08-28T07:01:55.716Z,3.53
2022-08-28T07:04:24.063Z,3.10
2022-08-28T07:06:54.574Z,3.90
2022-08-28T07:09:24.076Z,3.23
2022-08-28T07:11:54.301Z,3.90
2022-08-28T07:14:22.531Z,2.67
2022-08-28T07:16:51.756Z,2.80
2022-08-28T07:19:20.167Z,2.80
2022-08-28T07:21:48.430Z,3.27
2022-08-28T07:24:17.988Z,2.80
2022-08-28T07:26:47.214Z,3.60
2022-08-28T07:29:16.977Z,2.80
2022-08-28T07:31:47.338Z,3.23
2022-08-28T07:34:16.720Z,3.43
2022-08-28T07:36:45.907Z,2.93
2022-08-28T07:39:15.997Z,3.37
2022-08-28T07:41:44.559Z,3.20
2022-08-28T07:44:32.378Z,3.10
2022-08-28T07:47:05.611Z,2.90
2022-08-28T07:49:35.707Z,3.03
2022-08-28T07:52:04.724Z,2.77
2022-08-28T07:54:33.025Z,3.33
2022-08-28T07:57:02.155Z,3.27
2022-08-28T07:59:36.594Z,2.67
2022-08-28T08:02:07.096Z,2.60
2022-08-28T08:04:35.521Z,3.50
2022-08-28T08:07:05.248Z,2.87
2022-08-28T08:09:38.451Z,2.43
2022-08-28T08:12:07.655Z,3.07
2022-08-28T08:14:38.958Z,3.20
2022-08-28T08:17:09.699Z,3.17
2022-08-28T08:19:38.072Z,3.97
2022-08-28T08:22:06.372Z,3.20
2022-08-28T08:24:35.367Z,2.40
2022-08-28T08:27:06.631Z,3.17
2022-08-28T08:29:37.162Z,2.50
2022-08-28T08:32:08.557Z,2.90
2022-08-28T08:34:40.836Z,2.50
2022-08-28T08:37:09.729Z,2.70
2022-08-28T08:39:38.639Z,2.50
2022-08-28T08:42:19.620Z,2.57
2022-08-28T08:44:49.518Z,2.90
2022-08-28T08:47:22.723Z,2.67
2022-08-28T08:49:57.449Z,2.80
2022-08-28T08:52:42.815Z,2.40
2022-08-28T08:55:27.492Z,3.00
2022-08-28T08:58:05.412Z,3.13
2022-08-28T09:00:38.359Z,2.37
2022-08-28T09:03:10.618Z,2.20
2022-08-28T09:05:48.478Z,2.97
2022-08-28T09:08:35.111Z,1.97
2022-08-28T09:11:09.312Z,2.57
2022-08-28T09:13:48.764Z,2.20
2022-08-28T09:16:29.357Z,2.10
2022-08-28T09:18:59.938Z,2.90
2022-08-28T09:21:32.341Z,2.70
2022-08-28T09:24:11.064Z,2.33
2022-08-28T09:26:41.357Z,2.27
2022-08-28T09:29:18.472Z,2.70
2022-08-28T09:31:46.738Z,2.63
2022-08-28T09:34:28.423Z,2.20
2022-08-28T09:36:59.744Z,2.40
2022-08-28T09:39:30.164Z,2.80
2022-08-28T09:42:20.462Z,2.77
2022-08-28T09:44:52.780Z,2.47
2022-08-28T09:47:46.992Z,2.40
2022-08-28T09:50:30.088Z,2.53
2022-08-28T09:53:14.038Z,2.43
2022-08-28T09:55:52.027Z,3.47
2022-08-28T09:58:22.425Z,2.80
2022-08-28T10:00:55.114Z,2.57
2022-08-28T10:03:27.669Z,3.07
2022-08-28T10:06:05.389Z,2.47
2022-08-28T10:08:50.515Z,2.90
2022-08-28T10:11:26.458Z,3.30
2022-08-28T10:14:06.559Z,3.07
2022-08-28T10:16:43.042Z,3.03
2022-08-28T10:19:22.744Z,2.43
2022-08-28T10:21:59.718Z,3.10
2022-08-28T10:24:58.965Z,2.60
2022-08-28T10:27:41.185Z,2.77
2022-08-28T10:30:14.429Z,3.00
2022-08-28T10:33:12.925Z,3.30
2022-08-28T10:35:52.230Z,3.00
2022-08-28T10:38:27.024Z,2.80
2022-08-28T10:41:02.705Z,3.40
2022-08-28T10:43:35.803Z,2.77
2022-08-28T10:46:06.978Z,2.90
2022-08-28T10:48:42.453Z,3.17
2022-08-28T10:51:18.565Z,2.80
2022-08-28T10:53:52.905Z,3.00
2022-08-28T10:56:26.139Z,2.63
2022-08-28T10:58:58.718Z,2.80
2022-08-28T11:01:31.104Z,2.93
2022-08-28T11:04:03.123Z,2.77
2022-08-28T11:06:36.488Z,3.00
2022-08-28T11:09:22.195Z,2.83
2022-08-28T11:11:56.454Z,3.30
2022-08-28T11:14:33.770Z,3.00
2022-08-28T11:17:06.757Z,2.47
2022-08-28T11:20:04.189Z,2.20
2022-08-28T11:22:38.612Z,3.00
2022-08-28T11:25:18.239Z,2.90
2022-08-28T11:28:16.197Z,2.90
2022-08-28T11:30:46.998Z,3.30
2022-08-28T11:33:38.802Z,2.60
2022-08-28T11:36:11.809Z,2.70
2022-08-28T11:39:20.604Z,3.40
2022-08-28T11:42:29.394Z,2.80
2022-08-28T11:44:58.914Z,3.07
2022-08-28T11:47:47.732Z,3.17
2022-08-28T11:50:32.064Z,2.93
2022-08-28T11:53:36.149Z,3.30
2022-08-28T11:56:32.055Z,3.23
2022-08-28T11:59:12.841Z,3.37
2022-08-28T12:01:42.397Z,3.87
2022-08-28T12:04:13.490Z,3.77
2022-08-28T12:06:52.063Z,3.73
2022-08-28T12:09:40.920Z,3.50
2022-08-28T12:12:15.034Z,4.03
2022-08-28T12:15:07.672Z,3.97
2022-08-28T12:17:57.504Z,3.17
2022-08-28T12:20:37.804Z,3.30
2022-08-28T12:23:34.723Z,3.87
2022-08-28T12:26:04.935Z,3.60
2022-08-28T12:28:38.499Z,4.47
2022-08-28T12:32:09.438Z,3.50
2022-08-28T12:34:52.002Z,3.63
2022-08-28T12:37:39.569Z,4.60
2022-08-28T12:40:24.697Z,3.53
2022-08-28T12:42:56.424Z,3.50
2022-08-28T12:45:28.798Z,3.80
2022-08-28T12:48:01.113Z,4.00
2022-08-28T12:50:35.380Z,4.23
2022-08-28T12:53:05.147Z,5.03
2022-08-28T12:55:34.627Z,4.70
2022-08-28T12:58:02.810Z,4.83
2022-08-28T13:00:35.091Z,5.67
2022-08-28T13:03:09.217Z,5.10
2022-08-28T13:05:41.149Z,5.50
2022-08-28T13:08:12.097Z,5.30
2022-08-28T13:10:43.990Z,3.97
2022-08-28T13:13:20.962Z,4.70
2022-08-28T13:15:55.674Z,3.73
2022-08-28T13:18:47.458Z,4.90
2022-08-28T13:21:33.851Z,4.40
2022-08-28T13:24:37.001Z,4.70
2022-08-28T13:27:09.477Z,5.10
2022-08-28T13:29:39.232Z,4.37
2022-08-28T13:32:11.086Z,5.20
2022-08-28T13:34:47.718Z,4.77
2022-08-28T13:37:46.465Z,4.27
2022-08-28T13:40:45.861Z,5.67
2022-08-28T13:43:11.459Z,5.30
2022-08-28T13:45:43.617Z,4.70
2022-08-28T13:48:13.252Z,5.07
2022-08-28T13:50:46.547Z,4.57
2022-08-28T13:53:18.457Z,5.20
2022-08-28T13:55:47.548Z,4.27
2022-08-28T13:58:15.915Z,4.43
2022-08-28T14:00:46.892Z,3.67
2022-08-28T14:03:38.151Z,4.33
2022-08-28T14:06:09.269Z,4.40
2022-08-28T14:08:39.783Z,4.00
2022-08-28T14:11:12.939Z,4.37
2022-08-28T14:13:47.470Z,4.50
2022-08-28T14:16:24.308Z,4.40
2022-08-28T14:18:53.678Z,4.07
2022-08-28T14:21:21.898Z,4.27
2022-08-28T14:23:51.611Z,4.17
2022-08-28T14:26:19.932Z,3.87
2022-08-28T14:28:48.176Z,4.27
2022-08-28T14:31:16.434Z,5.67
2022-08-28T14:33:45.099Z,4.30
2022-08-28T14:36:16.863Z,4.00
2022-08-28T14:38:45.120Z,3.93
2022-08-28T14:41:15.248Z,4.43
2022-08-28T14:43:43.540Z,3.70
2022-08-28T14:46:16.559Z,4.23
2022-08-28T14:48:44.917Z,4.17
2022-08-28T14:51:13.064Z,4.20
2022-08-28T14:53:41.425Z,4.30
2022-08-28T14:56:11.115Z,4.27
2022-08-28T14:58:40.708Z,5.33
2022-08-28T15:01:08.943Z,4.93
2022-08-28T15:03:37.331Z,4.43
2022-08-28T15:06:08.173Z,4.53
2022-08-28T15:08:38.157Z,4.80
2022-08-28T15:11:07.868Z,5.00
2022-08-28T15:13:36.071Z,4.80
2022-08-28T15:16:15.570Z,4.53
2022-08-28T15:18:45.857Z,5.17
2022-08-28T15:21:18.810Z,4.97
2022-08-28T15:23:49.185Z,5.07
2022-08-28T15:26:17.654Z,4.90
2022-08-28T15:28:45.981Z,5.80
2022-08-28T15:31:15.591Z,4.20
2022-08-28T15:33:45.509Z,5.20
2022-08-28T15:36:13.867Z,4.70
2022-08-28T15:38:59.744Z,5.83
2022-08-28T15:41:29.303Z,4.40
2022-08-28T15:44:00.116Z,3.97
2022-08-28T15:46:33.529Z,4.13
2022-08-28T15:49:02.274Z,3.90
2022-08-28T15:51:32.057Z,3.57
2022-08-28T15:54:01.433Z,3.90
2022-08-28T15:56:29.694Z,4.40
2022-08-28T15:58:57.769Z,3.20
2022-08-28T16:01:26.020Z,3.97
2022-08-28T16:03:55.946Z,3.23
2022-08-28T16:06:24.410Z,3.93
2022-08-28T16:08:52.557Z,3.87
2022-08-28T16:11:22.924Z,4.20
2022-08-28T16:13:51.758Z,4.60
2022-08-28T16:16:20.361Z,3.40
2022-08-28T16:18:48.752Z,3.67
2022-08-28T16:21:19.863Z,3.40
2022-08-28T16:23:48.311Z,3.63
2022-08-28T16:26:16.824Z,4.00
2022-08-28T16:28:45.086Z,4.60
2022-08-28T16:31:20.442Z,5.00
2022-08-28T16:33:49.208Z,4.30
2022-08-28T16:36:21.718Z,3.87
2022-08-28T16:38:57.258Z,4.27
2022-08-28T16:41:29.963Z,3.93
2022-08-28T16:44:00.810Z,3.63
2022-08-28T16:46:29.794Z,3.80
2022-08-28T16:48:58.217Z,3.80
2022-08-28T16:51:27.798Z,4.50
2022-08-28T16:53:56.859Z,4.23
2022-08-28T16:56:26.511Z,4.93
2022-08-28T16:58:54.809Z,4.27
2022-08-28T17:01:24.087Z,3.70
2022-08-28T17:03:53.316Z,4.50
2022-08-28T17:06:23.336Z,4.00
2022-08-28T17:08:56.692Z,4.13
2022-08-28T17:11:25.584Z,4.40
2022-08-28T17:13:53.690Z,4.20
2022-08-28T17:16:23.313Z,5.03
2022-08-28T17:18:52.403Z,4.50
2022-08-28T17:21:50.007Z,8.03
2022-08-28T17:24:19.697Z,5.43
2022-08-28T17:26:47.808Z,4.77
2022-08-28T17:29:15.978Z,4.60
2022-08-28T17:31:44.422Z,3.87
2022-08-28T17:34:12.649Z,3.77
2022-08-28T17:36:43.276Z,4.23
2022-08-28T17:39:13.950Z,3.23
2022-08-28T17:41:43.955Z,2.63
2022-08-28T17:44:13.783Z,4.70
2022-08-28T17:46:41.878Z,3.23
2022-08-28T17:49:10.196Z,3.83
2022-08-28T17:51:43.503Z,4.07
2022-08-28T17:54:13.603Z,3.60
2022-08-28T17:56:43.428Z,3.87
2022-08-28T17:59:12.082Z,4.00
2022-08-28T18:01:41.623Z,3.57
2022-08-28T18:04:10.368Z,3.50
2022-08-28T18:06:39.242Z,3.50
2022-08-28T18:09:10.288Z,4.30
2022-08-28T18:11:38.533Z,3.80
2022-08-28T18:14:08.209Z,3.93
2022-08-28T18:16:37.804Z,3.60
2022-08-28T18:19:07.269Z,4.23
2022-08-28T18:21:35.960Z,3.50
2022-08-28T18:24:04.628Z,4.10
2022-08-28T18:26:32.764Z,4.23
2022-08-28T18:29:00.854Z,3.40
2022-08-28T18:31:30.460Z,3.50
2022-08-28T18:33:58.941Z,4.43
2022-08-28T18:36:27.159Z,4.27
2022-08-28T18:38:55.286Z,4.20
2022-08-28T18:41:28.673Z,4.13
2022-08-28T18:44:11.122Z,4.10
2022-08-28T18:46:40.723Z,4.47
2022-08-28T18:49:09.138Z,3.97
2022-08-28T18:51:37.403Z,4.27
2022-08-28T18:54:06.225Z,4.50
2022-08-28T18:56:36.055Z,3.87
2022-08-28T18:59:06.619Z,4.30
2022-08-28T19:01:34.981Z,4.30
2022-08-28T19:04:04.858Z,4.37
2022-08-28T19:06:33.476Z,4.27
2022-08-28T19:09:01.743Z,4.30
2022-08-28T19:11:31.348Z,4.00
2022-08-28T19:13:59.626Z,4.30
2022-08-28T19:16:33.409Z,4.63
2022-08-28T19:19:02.418Z,4.77
2022-08-28T19:21:31.925Z,4.23
2022-08-28T19:24:01.025Z,4.27
2022-08-28T19:26:29.570Z,4.33
2022-08-28T19:28:57.978Z,4.27
2022-08-28T19:31:27.312Z,3.90
2022-08-28T19:33:56.225Z,4.30
2022-08-28T19:36:27.065Z,4.20
2022-08-28T19:38:56.615Z,3.83
2022-08-28T19:41:26.308Z,5.30
2022-08-28T19:43:54.696Z,4.67
2022-08-28T19:46:22.890Z,3.90
2022-08-28T19:48:53.079Z,4.00
2022-08-28T19:51:24.100Z,4.40
2022-08-28T19:53:57.878Z,4.40
2022-08-28T19:56:29.760Z,4.33
2022-08-28T19:58:59.429Z,4.57
2022-08-28T20:01:29.865Z,3.90
2022-08-28T20:03:58.910Z,3.97
2022-08-28T20:06:27.591Z,4.13
2022-08-28T20:08:55.882Z,4.50
2022-08-28T20:11:29.014Z,3.60
2022-08-28T20:14:04.540Z,4.23
2022-08-28T20:16:35.429Z,4.33
2022-08-28T20:19:04.169Z,4.30
2022-08-28T20:21:37.999Z,4.50
2022-08-28T20:24:07.622Z,4.43
2022-08-28T20:26:35.849Z,4.20
2022-08-28T20:29:05.771Z,3.73
2022-08-28T20:31:33.977Z,3.67
2022-08-28T20:34:02.097Z,4.60
2022-08-28T20:36:30.508Z,3.93
2022-08-28T20:38:58.606Z,3.50
2022-08-28T20:41:26.702Z,3.67
2022-08-28T20:43:54.775Z,3.60
2022-08-28T20:46:25.621Z,4.13
2022-08-28T20:48:53.773Z,4.83
2022-08-28T20:51:42.409Z,4.00
2022-08-28T20:54:10.749Z,4.53
2022-08-28T20:56:39.451Z,3.93
2022-08-28T20:59:08.116Z,4.33
2022-08-28T21:01:37.599Z,3.80
2022-08-28T21:04:06.142Z,4.20
2022-08-28T21:06:34.825Z,4.37
2022-08-28T21:09:03.212Z,3.67
2022-08-28T21:11:31.264Z,4.27
2022-08-28T21:13:59.334Z,4.43
2022-08-28T21:16:27.491Z,4.40
2022-08-28T21:19:15.273Z,3.90
2022-08-28T21:21:45.278Z,4.17
2022-08-28T21:24:16.661Z,4.00
2022-08-28T21:26:46.148Z,3.73
2022-08-28T21:29:15.205Z,3.73
2022-08-28T21:31:44.847Z,4.43
2022-08-28T21:34:14.916Z,3.70
2022-08-28T21:36:50.012Z,4.00
2022-08-28T21:39:21.365Z,3.97
2022-08-28T21:41:49.590Z,3.77
2022-08-28T21:44:18.310Z,4.30
2022-08-28T21:46:46.582Z,3.80
2022-08-28T21:49:16.037Z,4.40
2022-08-28T21:51:44.198Z,4.30
2022-08-28T21:54:12.549Z,3.90
2022-08-28T21:56:40.674Z,4.00
2022-08-28T21:59:11.819Z,4.23
2022-08-28T22:01:39.995Z,3.77
2022-08-28T22:04:08.282Z,3.43
2022-08-28T22:06:37.719Z,4.17
2022-08-28T22:09:06.614Z,4.87
2022-08-28T22:11:35.138Z,4.40
2022-08-28T22:14:03.535Z,4.00
2022-08-28T22:16:32.342Z,4.17
2022-08-28T22:19:00.747Z,4.23
2022-08-28T22:21:46.561Z,4.07
2022-08-28T22:24:16.486Z,3.87
2022-08-28T22:26:44.726Z,4.37
2022-08-28T22:29:13.459Z,4.47
2022-08-28T22:31:45.478Z,4.30
2022-08-28T22:34:15.132Z,4.47
2022-08-28T22:36:43.257Z,4.53
2022-08-28T22:39:11.403Z,4.40
2022-08-28T22:41:41.621Z,3.87
2022-08-28T22:44:10.133Z,4.03
2022-08-28T22:46:38.272Z,4.17
2022-08-28T22:49:07.050Z,4.40
2022-08-28T22:51:35.627Z,4.33
2022-08-28T22:54:03.770Z,4.00
2022-08-28T22:56:31.851Z,3.73
2022-08-28T22:59:01.351Z,4.00
2022-08-28T23:01:30.215Z,4.07
2022-08-28T23:04:01.286Z,4.10
2022-08-28T23:06:29.498Z,4.20
2022-08-28T23:08:57.594Z,4.23
2022-08-28T23:11:26.009Z,4.00
2022-08-28T23:13:54.180Z,3.77
2022-08-28T23:16:24.631Z,5.00
2022-08-28T23:19:09.294Z,4.13
2022-08-28T23:21:43.558Z,4.10
2022-08-28T23:24:13.166Z,4.10
2022-08-28T23:26:41.640Z,4.33
2022-08-28T23:29:10.158Z,4.33
2022-08-28T23:31:40.191Z,4.73
2022-08-28T23:34:08.766Z,3.70
2022-08-28T23:36:37.611Z,4.07
2022-08-28T23:39:08.056Z,3.97
2022-08-28T23:41:36.252Z,4.13
2022-08-28T23:44:08.708Z,4.23
2022-08-28T23:46:41.530Z,4.20
2022-08-28T23:49:10.462Z,4.07
2022-08-28T23:51:39.110Z,3.97
2022-08-28T23:54:07.598Z,4.20
2022-08-28T23:56:36.535Z,4.10
2022-08-28T23:59:05.141Z,4.33
